Time;durP1;ratioP1;P1;durP2;ratioP2;P2;SDS_P1;SDS_P2;PMS_P1;PMS_P2;Temp;Humidity;BMP_temperature;BMP_pressure;BME280_temperature;BME280_humidity;BME280_pressure;Samples;Min_cycle;Max_cycle;Signal;HPM_P1;HPM_P2
2021/11/23 00:00:09;;;;;;;13.00;3.40;;;4.70;99.90;;;;;;6240559;22;20023;-63
2021/11/23 00:02:36;;;;;;;8.93;3.15;;;4.60;99.90;;;;;;6239124;22;20024;-62
2021/11/23 00:05:03;;;;;;;10.32;2.70;;;4.60;99.90;;;;;;6238793;22;20018;-62
2021/11/23 00:07:29;;;;;;;7.72;2.65;;;4.50;99.90;;;;;;6238274;22;20330;-62
2021/11/23 00:09:54;;;;;;;9.45;2.70;;;4.50;99.90;;;;;;6241099;22;20030;-63
2021/11/23 00:12:20;;;;;;;4.60;1.90;;;4.60;99.90;;;;;;6239576;22;20012;-63
2021/11/23 00:14:46;;;;;;;5.57;2.65;;;4.60;99.90;;;;;;6240763;22;20012;-62
2021/11/23 00:17:11;;;;;;;6.57;2.30;;;4.50;99.90;;;;;;6238131;22;20012;-63
2021/11/23 00:19:37;;;;;;;5.25;2.83;;;4.50;99.90;;;;;;6240723;22;20608;-62
2021/11/23 00:22:03;;;;;;;8.75;2.42;;;4.60;99.90;;;;;;6240076;22;20004;-62
2021/11/23 00:24:29;;;;;;;10.25;2.60;;;4.60;99.90;;;;;;6240379;22;20088;-61
2021/11/23 00:26:54;;;;;;;8.20;2.50;;;4.60;99.90;;;;;;6240425;22;20027;-62
2021/11/23 00:29:20;;;;;;;8.80;2.17;;;4.70;99.90;;;;;;6239643;22;20079;-62
2021/11/23 00:31:45;;;;;;;10.88;3.13;;;4.70;99.90;;;;;;6238919;22;20012;-62
2021/11/23 00:34:11;;;;;;;6.22;2.47;;;4.70;99.90;;;;;;6239790;22;20087;-62
2021/11/23 00:36:37;;;;;;;10.90;2.75;;;4.70;99.90;;;;;;6239774;22;20019;-63
2021/11/23 00:39:03;;;;;;;6.90;2.10;;;4.70;99.90;;;;;;6238316;22;20461;-63
2021/11/23 00:41:28;;;;;;;7.75;2.05;;;4.80;99.90;;;;;;6238443;22;20012;-62
2021/11/23 00:43:54;;;;;;;11.27;2.13;;;4.80;99.90;;;;;;6240773;22;20012;-62
2021/11/23 00:46:19;;;;;;;9.95;2.60;;;4.80;99.90;;;;;;6239639;22;20004;-63
2021/11/23 00:48:45;;;;;;;9.48;3.10;;;4.90;99.90;;;;;;6238787;23;20070;-63
2021/11/23 00:51:11;;;;;;;8.32;2.22;;;4.90;99.90;;;;;;6240112;22;20016;-62
2021/11/23 00:53:36;;;;;;;6.28;2.10;;;4.90;99.90;;;;;;6239805;22;20016;-62
2021/11/23 00:56:04;;;;;;;6.55;1.77;;;4.90;99.90;;;;;;6239968;22;20019;-63
2021/11/23 00:58:30;;;;;;;12.13;3.63;;;4.90;99.90;;;;;;6239849;22;20447;-62
2021/11/23 01:00:55;;;;;;;10.23;2.30;;;5.00;99.90;;;;;;6238923;23;20020;-62
2021/11/23 01:03:21;;;;;;;8.23;2.25;;;5.00;99.90;;;;;;6239126;22;20399;-62
2021/11/23 01:05:47;;;;;;;11.07;2.90;;;5.00;99.90;;;;;;6238545;23;20038;-62
2021/11/23 01:08:14;;;;;;;7.47;2.00;;;5.00;99.90;;;;;;6239702;22;20008;-61
2021/11/23 01:10:40;;;;;;;8.23;2.58;;;5.00;99.90;;;;;;6240502;22;20062;-62
2021/11/23 01:13:06;;;;;;;7.90;2.22;;;5.00;99.90;;;;;;6237908;22;20091;-62
2021/11/23 01:15:32;;;;;;;13.57;2.65;;;5.00;99.90;;;;;;6239872;22;20398;-62
2021/11/23 01:17:57;;;;;;;7.93;2.22;;;5.10;99.90;;;;;;6239782;22;20008;-63
2021/11/23 01:20:23;;;;;;;8.05;2.85;;;5.10;99.90;;;;;;6239742;22;20008;-62
2021/11/23 01:22:50;;;;;;;5.43;2.13;;;5.10;99.90;;;;;;6240465;22;20012;-61
2021/11/23 01:25:16;;;;;;;5.07;1.95;;;5.10;99.90;;;;;;6239303;22;20016;-62
2021/11/23 01:27:42;;;;;;;7.18;1.98;;;5.20;99.90;;;;;;6240290;22;20117;-62
2021/11/23 01:30:09;;;;;;;5.60;2.03;;;5.20;99.90;;;;;;6238061;22;20023;-62
2021/11/23 01:32:36;;;;;;;3.25;1.48;;;5.20;99.90;;;;;;6239895;22;20023;-62
2021/11/23 01:35:02;;;;;;;7.22;2.33;;;5.20;99.90;;;;;;6238347;22;20083;-62
2021/11/23 01:37:28;;;;;;;6.57;1.80;;;5.30;99.90;;;;;;6240062;22;20434;-62
2021/11/23 01:39:53;;;;;;;8.05;2.80;;;5.30;99.90;;;;;;6240317;22;20011;-62
2021/11/23 01:42:19;;;;;;;9.63;2.70;;;5.30;99.90;;;;;;6239400;22;20028;-62
2021/11/23 01:44:45;;;;;;;7.60;1.88;;;5.30;99.90;;;;;;6240821;22;20023;-62
2021/11/23 01:47:10;;;;;;;6.22;1.88;;;5.40;99.90;;;;;;6241495;22;20399;-62
2021/11/23 01:49:36;;;;;;;13.00;3.28;;;5.40;99.90;;;;;;6241398;22;20016;-62
2021/11/23 01:52:02;;;;;;;6.50;1.75;;;5.40;99.90;;;;;;6241875;22;20022;-62
2021/11/23 01:54:27;;;;;;;8.55;1.88;;;5.50;99.90;;;;;;6241926;22;20339;-63
2021/11/23 01:56:53;;;;;;;4.70;1.83;;;5.50;99.90;;;;;;6242195;22;20004;-62
2021/11/23 01:59:19;;;;;;;7.22;2.72;;;5.50;99.90;;;;;;6241144;22;20015;-63
2021/11/23 02:01:44;;;;;;;6.47;2.60;;;5.50;99.90;;;;;;6241775;22;20030;-63
2021/11/23 02:04:10;;;;;;;7.55;2.55;;;5.60;99.90;;;;;;6241389;22;20022;-63
2021/11/23 02:06:36;;;;;;;8.55;2.28;;;5.60;99.90;;;;;;6241318;22;20017;-64
2021/11/23 02:09:03;;;;;;;5.97;2.38;;;5.60;99.90;;;;;;6241808;22;20012;-62
2021/11/23 02:11:29;;;;;;;5.65;2.50;;;5.60;99.90;;;;;;6239977;22;20015;-62
2021/11/23 02:13:55;;;;;;;4.82;1.80;;;5.60;99.90;;;;;;6242024;22;20012;-62
2021/11/23 02:16:21;;;;;;;9.95;3.10;;;5.70;99.90;;;;;;6239642;22;20139;-62
2021/11/23 02:18:47;;;;;;;6.47;2.08;;;5.70;99.90;;;;;;6241847;22;20015;-62
2021/11/23 02:21:12;;;;;;;8.43;2.15;;;5.70;99.90;;;;;;6241318;22;20015;-62
2021/11/23 02:23:39;;;;;;;9.90;2.30;;;5.70;99.90;;;;;;6241204;22;20020;-62
2021/11/23 02:26:05;;;;;;;7.03;1.70;;;5.70;99.90;;;;;;6240509;22;20047;-62
2021/11/23 02:28:31;;;;;;;10.38;2.45;;;5.80;99.90;;;;;;6241320;22;20004;-62
2021/11/23 02:31:00;;;;;;;5.22;1.70;;;5.80;99.90;;;;;;6239750;22;20028;-62
2021/11/23 02:33:28;;;;;;;7.68;2.40;;;5.80;99.90;;;;;;6241363;22;20012;-62
2021/11/23 02:35:57;;;;;;;6.97;1.70;;;5.80;99.90;;;;;;6241738;22;20023;-63
2021/11/23 02:38:24;;;;;;;4.43;1.75;;;5.90;99.90;;;;;;6240418;22;20019;-62
2021/11/23 02:40:51;;;;;;;3.78;1.80;;;5.90;99.90;;;;;;6241893;22;20403;-61
2021/11/23 02:43:17;;;;;;;7.68;2.17;;;5.90;99.90;;;;;;6240487;22;20465;-62
2021/11/23 02:45:43;;;;;;;5.60;1.63;;;5.90;99.90;;;;;;6241546;22;20012;-63
2021/11/23 02:48:11;;;;;;;8.32;2.28;;;5.90;99.90;;;;;;6240940;22;20009;-63
2021/11/23 02:50:38;;;;;;;9.93;2.83;;;5.90;99.90;;;;;;6241063;22;20008;-62
2021/11/23 02:53:04;;;;;;;9.55;1.55;;;5.90;99.90;;;;;;6241132;22;20012;-62
2021/11/23 02:55:33;;;;;;;7.45;1.52;;;5.90;99.90;;;;;;6240900;22;20047;-62
2021/11/23 02:58:00;;;;;;;4.43;1.88;;;5.90;99.90;;;;;;6240696;22;20350;-63
2021/11/23 03:00:28;;;;;;;11.40;2.85;;;5.90;99.90;;;;;;6241066;22;20434;-62
2021/11/23 03:02:54;;;;;;;8.40;2.15;;;5.90;99.90;;;;;;6240943;22;20465;-63
2021/11/23 03:05:22;;;;;;;8.68;2.35;;;5.90;99.90;;;;;;6240089;22;20008;-63
2021/11/23 03:07:50;;;;;;;7.53;1.75;;;6.00;99.90;;;;;;6241747;22;20061;-62
2021/11/23 03:10:18;;;;;;;3.78;1.38;;;6.00;99.90;;;;;;6238708;22;20000;-62
2021/11/23 03:12:47;;;;;;;4.63;1.65;;;6.00;99.90;;;;;;6241587;22;20012;-62
2021/11/23 03:15:13;;;;;;;8.50;2.65;;;6.10;99.90;;;;;;6239182;22;20012;-63
2021/11/23 03:17:39;;;;;;;6.00;1.80;;;6.00;99.90;;;;;;6240965;22;20008;-62
2021/11/23 03:20:06;;;;;;;8.77;2.40;;;6.10;99.90;;;;;;6240568;22;20012;-62
2021/11/23 03:22:32;;;;;;;8.15;1.80;;;6.10;99.90;;;;;;6240440;22;20481;-62
2021/11/23 03:24:58;;;;;;;3.40;1.55;;;6.10;99.90;;;;;;6240786;22;20016;-64
2021/11/23 03:27:24;;;;;;;11.57;3.30;;;6.10;99.90;;;;;;6239989;22;20373;-64
2021/11/23 03:29:50;;;;;;;6.13;2.20;;;6.10;99.90;;;;;;6239561;23;20008;-62
2021/11/23 03:32:15;;;;;;;4.65;1.60;;;6.10;99.90;;;;;;6240190;22;20012;-66
2021/11/23 03:34:42;;;;;;;5.40;1.98;;;6.10;99.90;;;;;;6241343;22;20012;-62
2021/11/23 03:37:14;;;;;;;7.40;1.88;;;6.10;99.90;;;;;;6240332;22;20008;-62
2021/11/23 03:39:41;;;;;;;9.75;2.03;;;6.10;99.90;;;;;;6241081;22;20016;-62
2021/11/23 03:42:08;;;;;;;6.88;2.42;;;6.20;99.90;;;;;;6240743;22;20088;-62
2021/11/23 03:44:35;;;;;;;3.92;1.45;;;6.20;99.90;;;;;;6237933;22;20036;-63
2021/11/23 03:47:02;;;;;;;7.28;2.22;;;6.20;99.90;;;;;;6239932;22;20016;-62
2021/11/23 03:49:27;;;;;;;7.78;1.60;;;6.20;99.90;;;;;;6240859;22;20030;-62
2021/11/23 03:51:55;;;;;;;5.85;1.90;;;6.20;99.90;;;;;;6239568;22;20020;-61
2021/11/23 03:54:21;;;;;;;7.90;1.83;;;6.20;99.90;;;;;;6240023;22;20066;-62
2021/11/23 03:56:47;;;;;;;4.88;1.42;;;6.20;99.90;;;;;;6240968;22;20047;-61
2021/11/23 03:59:13;;;;;;;8.05;2.10;;;6.20;99.90;;;;;;6240684;22;20050;-62
2021/11/23 04:01:39;;;;;;;4.40;1.55;;;6.30;99.90;;;;;;6240453;22;20766;-62
2021/11/23 04:04:05;;;;;;;4.50;1.70;;;6.30;99.90;;;;;;6240452;22;20043;-61
2021/11/23 04:06:31;;;;;;;5.60;1.63;;;6.30;99.90;;;;;;6239933;22;20011;-62
2021/11/23 04:08:56;;;;;;;5.38;1.25;;;6.30;99.90;;;;;;6241288;22;20012;-62
2021/11/23 04:11:22;;;;;;;6.13;1.83;;;6.30;99.90;;;;;;6239928;22;20008;-62
2021/11/23 04:13:48;;;;;;;4.18;1.25;;;6.40;99.90;;;;;;6241259;22;20012;-62
2021/11/23 04:16:16;;;;;;;5.38;1.75;;;6.40;99.90;;;;;;6239852;22;20016;-61
2021/11/23 04:18:42;;;;;;;4.63;1.30;;;6.40;99.90;;;;;;6240770;22;20027;-62
2021/11/23 04:21:07;;;;;;;2.72;1.40;;;6.50;99.90;;;;;;6240267;22;20095;-62
2021/11/23 04:23:33;;;;;;;7.15;1.35;;;6.50;99.90;;;;;;6240441;22;20019;-62
2021/11/23 04:25:59;;;;;;;3.08;1.55;;;6.50;99.90;;;;;;6238926;22;20027;-64
2021/11/23 04:28:24;;;;;;;8.23;2.08;;;6.60;99.90;;;;;;6240119;22;20079;-62
2021/11/23 04:30:50;;;;;;;5.03;1.63;;;6.60;99.90;;;;;;6240857;22;20647;-61
2021/11/23 04:33:16;;;;;;;4.70;2.00;;;6.70;99.90;;;;;;6239786;22;20008;-63
2021/11/23 04:35:43;;;;;;;5.45;1.65;;;6.70;99.90;;;;;;6240951;22;20430;-62
2021/11/23 04:38:09;;;;;;;10.25;1.50;;;6.70;99.90;;;;;;6239829;22;20008;-62
2021/11/23 04:40:35;;;;;;;6.97;1.42;;;6.70;99.90;;;;;;6240248;22;20008;-63
2021/11/23 04:43:02;;;;;;;5.82;1.63;;;6.80;99.90;;;;;;6240071;22;20043;-62
2021/11/23 04:45:28;;;;;;;4.40;1.55;;;6.70;99.90;;;;;;6240442;22;20008;-62
2021/11/23 04:47:54;;;;;;;3.60;1.02;;;6.80;99.90;;;;;;6240477;22;20008;-62
2021/11/23 04:50:20;;;;;;;3.55;1.52;;;6.80;99.90;;;;;;6239761;22;20005;-63
2021/11/23 04:52:45;;;;;;;4.18;0.93;;;6.80;99.90;;;;;;6240349;22;20028;-62
2021/11/23 04:55:12;;;;;;;2.67;1.05;;;6.80;99.90;;;;;;6240102;22;20024;-62
2021/11/23 04:57:39;;;;;;;5.20;2.08;;;6.80;99.90;;;;;;6237917;22;20346;-62
2021/11/23 05:00:07;;;;;;;8.60;1.20;;;6.80;99.90;;;;;;6239945;22;20390;-64
2021/11/23 05:02:32;;;;;;;4.85;1.00;;;6.90;99.90;;;;;;6240251;22;20010;-61
2021/11/23 05:04:58;;;;;;;5.93;1.40;;;6.80;99.90;;;;;;6240901;22;20020;-67
2021/11/23 05:07:24;;;;;;;4.47;0.90;;;6.90;99.90;;;;;;6240824;22;20043;-62
2021/11/23 05:09:50;;;;;;;9.43;1.30;;;6.90;99.90;;;;;;6240888;22;20016;-62
2021/11/23 05:12:15;;;;;;;6.80;1.30;;;6.90;99.90;;;;;;6239384;22;20012;-64
2021/11/23 05:14:41;;;;;;;4.78;0.88;;;6.90;99.90;;;;;;6240707;22;20354;-63
2021/11/23 05:17:07;;;;;;;4.68;1.08;;;6.80;99.90;;;;;;6239297;22;20050;-63
2021/11/23 05:19:32;;;;;;;4.90;1.17;;;6.80;99.90;;;;;;6239885;22;20380;-63
2021/11/23 05:21:58;;;;;;;5.43;1.02;;;6.80;99.90;;;;;;6238037;22;20012;-64
2021/11/23 05:24:24;;;;;;;4.32;1.08;;;6.80;99.90;;;;;;6239449;22;20012;-62
2021/11/23 05:26:49;;;;;;;5.82;1.10;;;6.80;99.90;;;;;;6239472;22;20028;-62
2021/11/23 05:29:15;;;;;;;3.50;1.27;;;6.70;99.90;;;;;;6239322;22;20008;-66
2021/11/23 05:31:40;;;;;;;5.10;1.15;;;6.70;99.90;;;;;;6239414;22;20058;-63
2021/11/23 05:34:07;;;;;;;7.22;1.65;;;6.70;99.90;;;;;;6238904;22;20023;-63
2021/11/23 05:36:33;;;;;;;6.35;0.85;;;6.60;99.90;;;;;;6239152;22;20009;-62
2021/11/23 05:38:59;;;;;;;2.78;1.25;;;6.60;99.90;;;;;;6240222;22;20492;-62
2021/11/23 05:41:25;;;;;;;3.50;0.93;;;6.60;99.90;;;;;;6239207;22;20004;-62
2021/11/23 05:43:51;;;;;;;5.30;1.05;;;6.70;99.90;;;;;;6240308;22;20090;-63
2021/11/23 05:46:17;;;;;;;2.15;0.95;;;6.70;99.90;;;;;;6237024;22;20360;-63
2021/11/23 05:48:42;;;;;;;3.72;1.00;;;6.70;99.90;;;;;;6239828;22;20023;-62
2021/11/23 05:51:08;;;;;;;6.57;1.30;;;6.70;99.90;;;;;;6239482;22;20039;-62
2021/11/23 05:53:36;;;;;;;7.90;1.42;;;6.80;99.90;;;;;;6234071;22;20012;-63
2021/11/23 05:56:02;;;;;;;4.28;1.17;;;6.80;99.90;;;;;;6237440;22;20066;-62
2021/11/23 05:58:28;;;;;;;5.32;1.25;;;6.80;99.90;;;;;;6236059;22;20011;-62
2021/11/23 06:00:54;;;;;;;6.85;0.90;;;6.90;99.90;;;;;;6235321;22;20016;-62
2021/11/23 06:03:20;;;;;;;8.73;2.55;;;6.90;99.90;;;;;;6233798;22;20085;-62
2021/11/23 06:05:46;;;;;;;3.63;1.30;;;6.90;99.90;;;;;;6236115;22;20008;-62
2021/11/23 06:08:11;;;;;;;5.32;1.73;;;6.90;99.90;;;;;;6233319;22;20740;-62
2021/11/23 06:10:38;;;;;;;5.22;1.73;;;6.90;99.90;;;;;;6237063;22;20012;-62
2021/11/23 06:13:03;;;;;;;3.10;1.02;;;6.90;99.90;;;;;;6235961;22;20544;-62
2021/11/23 06:15:29;;;;;;;5.68;0.80;;;6.90;99.90;;;;;;6235795;22;20012;-61
2021/11/23 06:18:02;;;;;;;4.75;1.17;;;6.90;99.90;;;;;;6235350;22;20079;-62
2021/11/23 06:20:32;;;;;;;2.13;0.90;;;6.90;99.90;;;;;;6234853;22;20503;-62
2021/11/23 06:23:00;;;;;;;3.92;1.20;;;6.90;99.90;;;;;;6236884;22;20016;-62
2021/11/23 06:25:27;;;;;;;2.53;1.02;;;6.80;99.90;;;;;;6236768;22;20016;-64
2021/11/23 06:27:53;;;;;;;4.53;1.20;;;6.90;99.90;;;;;;6237043;22;20004;-61
2021/11/23 06:30:19;;;;;;;6.97;1.42;;;6.90;99.90;;;;;;6235251;22;20536;-63
2021/11/23 06:32:47;;;;;;;4.22;1.30;;;6.90;99.90;;;;;;6237831;22;20085;-62
2021/11/23 06:35:13;;;;;;;5.25;1.23;;;6.90;99.90;;;;;;6238816;22;20004;-62
2021/11/23 06:37:38;;;;;;;4.50;1.50;;;6.90;99.90;;;;;;6237881;22;20038;-62
2021/11/23 06:40:06;;;;;;;3.88;0.85;;;6.90;99.90;;;;;;6238359;22;20022;-64
2021/11/23 06:42:32;;;;;;;4.97;1.00;;;7.00;99.90;;;;;;6238237;22;20008;-63
2021/11/23 06:44:58;;;;;;;5.90;1.20;;;7.00;99.90;;;;;;6237729;22;20019;-63
2021/11/23 06:47:24;;;;;;;5.43;1.48;;;7.00;99.90;;;;;;6237156;22;20000;-63
2021/11/23 06:49:51;;;;;;;5.82;1.15;;;7.00;99.90;;;;;;6239191;22;20016;-62
2021/11/23 06:52:18;;;;;;;6.72;2.08;;;7.00;99.90;;;;;;6237585;22;20338;-63
2021/11/23 06:54:45;;;;;;;8.30;0.90;;;7.10;99.90;;;;;;6238711;22;20390;-64
2021/11/23 06:57:11;;;;;;;3.83;1.05;;;7.10;99.90;;;;;;6238246;22;20054;-62
2021/11/23 06:59:38;;;;;;;4.22;1.10;;;7.10;99.90;;;;;;6237679;22;20023;-62
2021/11/23 07:02:04;;;;;;;8.48;1.75;;;7.10;99.90;;;;;;6238220;22;20031;-62
2021/11/23 07:04:30;;;;;;;6.93;1.20;;;7.10;99.90;;;;;;6238151;22;20074;-62
2021/11/23 07:06:55;;;;;;;2.97;1.70;;;7.10;99.90;;;;;;6238625;22;20012;-62
2021/11/23 07:09:21;;;;;;;4.80;1.15;;;7.10;99.90;;;;;;6237088;22;20339;-62
2021/11/23 07:11:47;;;;;;;4.53;1.42;;;7.10;99.90;;;;;;6238765;22;20008;-62
2021/11/23 07:14:12;;;;;;;2.67;1.10;;;7.10;99.90;;;;;;6237850;22;20016;-61
2021/11/23 07:16:39;;;;;;;3.70;1.10;;;7.20;99.90;;;;;;6237093;22;20012;-62
2021/11/23 07:19:05;;;;;;;4.85;1.20;;;7.20;99.90;;;;;;6238211;22;20008;-62
2021/11/23 07:21:30;;;;;;;5.22;1.10;;;7.20;99.90;;;;;;6237663;22;20077;-62
2021/11/23 07:23:57;;;;;;;4.65;1.50;;;7.30;99.90;;;;;;6238352;22;20020;-62
2021/11/23 07:26:24;;;;;;;4.57;1.27;;;7.30;99.90;;;;;;6237219;22;20039;-62
2021/11/23 07:28:50;;;;;;;5.18;1.00;;;7.30;99.90;;;;;;6237657;22;20012;-62
2021/11/23 07:31:16;;;;;;;2.70;0.93;;;7.30;99.90;;;;;;6237615;22;20065;-63
2021/11/23 07:33:41;;;;;;;9.18;1.30;;;7.30;99.90;;;;;;6237990;22;20091;-62
2021/11/23 07:36:07;;;;;;;4.03;1.17;;;7.30;99.90;;;;;;6236147;22;20016;-62
2021/11/23 07:38:33;;;;;;;2.50;1.15;;;7.30;99.90;;;;;;6237251;22;20004;-62
2021/11/23 07:40:58;;;;;;;4.47;1.40;;;7.30;99.90;;;;;;6236676;23;20012;-62
2021/11/23 07:43:24;;;;;;;2.47;1.17;;;7.30;99.90;;;;;;6236418;22;20943;-62
2021/11/23 07:45:49;;;;;;;3.33;1.10;;;7.40;99.90;;;;;;6236354;23;20013;-62
2021/11/23 07:48:15;;;;;;;4.13;1.45;;;7.40;99.90;;;;;;6237485;22;20015;-62
2021/11/23 07:50:41;;;;;;;5.45;1.30;;;7.40;99.90;;;;;;6238092;22;20015;-62
2021/11/23 07:53:08;;;;;;;6.22;1.20;;;7.50;99.90;;;;;;6237548;22;20389;-62
2021/11/23 07:55:34;;;;;;;3.63;1.17;;;7.40;99.90;;;;;;6237847;22;20015;-63
2021/11/23 07:58:00;;;;;;;4.13;1.35;;;7.50;99.90;;;;;;6237679;22;20008;-67
2021/11/23 08:00:28;;;;;;;4.80;1.02;;;7.50;99.90;;;;;;6237045;22;20012;-62
2021/11/23 08:02:54;;;;;;;4.93;1.50;;;7.50;99.90;;;;;;6236435;22;20004;-62
2021/11/23 08:05:21;;;;;;;7.07;1.10;;;7.60;99.90;;;;;;6237618;22;20019;-62
2021/11/23 08:07:46;;;;;;;5.85;1.60;;;7.60;99.90;;;;;;6235598;23;20011;-62
2021/11/23 08:10:12;;;;;;;4.88;1.20;;;7.60;99.90;;;;;;6237441;22;20000;-62
2021/11/23 08:12:38;;;;;;;5.72;1.40;;;7.70;99.90;;;;;;6237538;22;20004;-62
2021/11/23 08:15:05;;;;;;;4.95;1.10;;;7.70;99.90;;;;;;6235943;22;20004;-62
2021/11/23 08:17:31;;;;;;;4.13;1.15;;;7.80;99.90;;;;;;6237493;22;20009;-62
2021/11/23 08:19:57;;;;;;;8.23;1.95;;;7.80;99.90;;;;;;6238615;22;20005;-62
2021/11/23 08:22:23;;;;;;;3.80;1.20;;;7.80;99.90;;;;;;6237307;22;20023;-62
2021/11/23 08:24:49;;;;;;;3.80;1.10;;;7.90;99.90;;;;;;6237990;22;20435;-62
2021/11/23 08:27:15;;;;;;;6.90;1.67;;;7.90;99.90;;;;;;6237509;22;20085;-62
2021/11/23 08:29:42;;;;;;;9.65;1.83;;;7.90;99.90;;;;;;6237099;22;20099;-63
2021/11/23 08:32:08;;;;;;;5.88;1.20;;;7.90;99.90;;;;;;6237817;22;20016;-62
2021/11/23 08:34:34;;;;;;;2.33;0.93;;;8.00;99.90;;;;;;6235554;22;20008;-62
2021/11/23 08:37:00;;;;;;;5.85;1.30;;;8.10;99.90;;;;;;6237263;22;20019;-63
2021/11/23 08:39:26;;;;;;;2.50;1.05;;;8.20;99.90;;;;;;6237016;22;20509;-62
2021/11/23 08:41:52;;;;;;;9.13;1.67;;;8.20;99.90;;;;;;6237766;22;20012;-62
2021/11/23 08:44:18;;;;;;;7.35;1.90;;;8.30;99.90;;;;;;6236490;22;20016;-62
2021/11/23 08:46:44;;;;;;;4.55;0.90;;;8.40;99.90;;;;;;6237413;22;20041;-62
2021/11/23 08:49:10;;;;;;;6.32;1.00;;;8.40;99.90;;;;;;6237411;22;20008;-61
2021/11/23 08:51:37;;;;;;;4.30;1.30;;;8.40;99.90;;;;;;6236551;22;20261;-61
2021/11/23 08:54:05;;;;;;;4.95;1.55;;;8.40;99.90;;;;;;6234847;22;20008;-62
2021/11/23 08:56:35;;;;;;;6.03;1.27;;;8.40;99.90;;;;;;6236911;22;20012;-62
2021/11/23 08:59:07;;;;;;;5.55;1.90;;;8.40;99.90;;;;;;6236872;22;20012;-62
2021/11/23 09:01:32;;;;;;;2.28;1.17;;;8.50;99.90;;;;;;6236906;22;20469;-62
2021/11/23 09:04:02;;;;;;;7.60;1.52;;;8.50;99.90;;;;;;6236961;22;20062;-62
2021/11/23 09:06:28;;;;;;;9.30;1.70;;;8.50;99.90;;;;;;6236517;22;20005;-62
2021/11/23 09:09:01;;;;;;;2.20;1.10;;;8.50;99.90;;;;;;6237651;22;20747;-62
2021/11/23 09:11:26;;;;;;;4.35;1.50;;;8.60;99.90;;;;;;6237007;22;20016;-62
2021/11/23 09:13:54;;;;;;;7.75;1.77;;;8.70;99.90;;;;;;6237160;22;20016;-62
2021/11/23 09:16:21;;;;;;;4.25;1.35;;;8.70;99.90;;;;;;6236217;22;20034;-63
2021/11/23 09:18:46;;;;;;;4.18;1.58;;;8.80;99.90;;;;;;6237214;22;20019;-62
2021/11/23 09:21:12;;;;;;;5.75;2.35;;;8.80;99.90;;;;;;6236516;22;20008;-62
2021/11/23 09:23:38;;;;;;;5.05;1.60;;;8.90;99.90;;;;;;6237236;22;20036;-62
2021/11/23 09:26:04;;;;;;;3.92;1.88;;;9.00;99.90;;;;;;6236630;22;20324;-61
2021/11/23 09:28:29;;;;;;;5.55;2.00;;;9.10;99.90;;;;;;6236827;22;20016;-62
2021/11/23 09:30:55;;;;;;;6.70;1.70;;;9.10;99.90;;;;;;6234671;23;20080;-62
2021/11/23 09:33:21;;;;;;;5.05;1.15;;;9.20;99.90;;;;;;6236568;22;20431;-62
2021/11/23 09:35:47;;;;;;;7.63;1.42;;;9.30;99.90;;;;;;6237038;22;20016;-62
2021/11/23 09:38:12;;;;;;;9.85;1.70;;;9.30;99.90;;;;;;6236246;22;20081;-61
2021/11/23 09:40:38;;;;;;;4.90;1.35;;;9.30;99.90;;;;;;6236872;22;20374;-62
2021/11/23 09:43:04;;;;;;;3.10;1.20;;;9.30;99.90;;;;;;6236800;22;20016;-62
2021/11/23 09:45:30;;;;;;;3.35;1.05;;;9.30;99.90;;;;;;6234919;22;20005;-63
2021/11/23 09:47:58;;;;;;;5.03;1.40;;;9.30;99.90;;;;;;6236367;22;20653;-62
2021/11/23 09:50:24;;;;;;;9.23;2.25;;;9.30;99.90;;;;;;6236183;22;20004;-62
2021/11/23 09:52:50;;;;;;;12.80;1.83;;;9.30;99.90;;;;;;6235043;22;20000;-62
2021/11/23 09:55:17;;;;;;;4.72;1.27;;;9.30;99.90;;;;;;6236883;22;20075;-62
2021/11/23 09:57:43;;;;;;;9.75;1.92;;;9.30;99.90;;;;;;6236819;22;20098;-62
2021/11/23 10:00:40;;;;;;;8.75;1.23;;;9.40;99.90;;;;;;6234515;22;20011;-63
2021/11/23 10:03:12;;;;;;;9.40;1.38;;;9.40;99.90;;;;;;6236192;22;20087;-62
2021/11/23 10:05:40;;;;;;;7.82;1.98;;;9.40;99.90;;;;;;6236908;22;20016;-61
2021/11/23 10:08:10;;;;;;;7.13;1.20;;;9.40;99.90;;;;;;6238632;22;20035;-63
2021/11/23 10:10:54;;;;;;;10.70;1.27;;;9.30;99.90;;;;;;6238666;22;20020;-61
2021/11/23 10:13:21;;;;;;;7.30;1.70;;;9.30;99.90;;;;;;6237926;22;20008;-61
2021/11/23 10:15:49;;;;;;;5.78;1.13;;;9.40;99.90;;;;;;6237349;23;20012;-61
2021/11/23 10:18:23;;;;;;;2.78;1.15;;;9.60;99.90;;;;;;6236857;22;20020;-62
2021/11/23 10:20:57;;;;;;;6.72;1.30;;;9.90;99.90;;;;;;6236522;23;20011;-62
2021/11/23 10:23:25;;;;;;;9.38;1.20;;;10.10;99.90;;;;;;6237236;22;20012;-62
2021/11/23 10:26:00;;;;;;;3.25;0.98;;;10.30;99.90;;;;;;6238953;22;20083;-61
2021/11/23 10:28:28;;;;;;;8.00;1.05;;;10.40;99.90;;;;;;6235452;22;20316;-61
2021/11/23 10:30:53;;;;;;;4.35;1.40;;;10.50;99.90;;;;;;6237986;22;20012;-61
2021/11/23 10:33:19;;;;;;;5.95;0.85;;;10.60;99.90;;;;;;6238025;22;20034;-62
2021/11/23 10:35:50;;;;;;;8.88;1.00;;;10.60;99.90;;;;;;6239000;22;20360;-62
2021/11/23 10:38:16;;;;;;;;;;;10.60;99.90;;;;;;6238221;22;20592;-62
2021/11/23 10:40:44;;;;;;;10.90;1.23;;;10.50;99.90;;;;;;6238264;22;19904;-62
2021/11/23 10:43:12;;;;;;;2.53;0.65;;;10.50;99.90;;;;;;6238076;22;20082;-61
2021/11/23 10:45:48;;;;;;;3.40;1.30;;;10.50;99.90;;;;;;6237912;22;20343;-62
2021/11/23 10:48:15;;;;;;;3.17;0.80;;;10.50;99.90;;;;;;6237992;22;20028;-62
2021/11/23 10:50:56;;;;;;;4.90;0.60;;;10.70;99.90;;;;;;6238170;22;20726;-62
2021/11/23 10:53:23;;;;;;;2.25;0.70;;;10.70;99.90;;;;;;6237760;22;20016;-64
2021/11/23 10:55:49;;;;;;;5.30;0.60;;;11.00;99.90;;;;;;6233368;22;20008;-61
2021/11/23 10:58:15;;;;;;;4.45;0.93;;;11.10;99.90;;;;;;6236383;22;20011;-61
2021/11/23 11:00:44;;;;;;;2.40;1.00;;;11.10;99.90;;;;;;6237395;22;20699;-61
2021/11/23 11:03:12;;;;;;;2.38;0.60;;;11.10;99.90;;;;;;6236825;22;20016;-62
2021/11/23 11:05:42;;;;;;;3.10;0.50;;;11.00;99.90;;;;;;6234838;22;20427;-62
2021/11/23 11:08:09;;;;;;;2.17;0.55;;;11.00;99.90;;;;;;6234807;22;20308;-63
2021/11/23 11:10:37;;;;;;;3.53;0.73;;;10.90;99.90;;;;;;6234162;22;20009;-62
2021/11/23 11:13:07;;;;;;;3.92;0.60;;;10.90;99.90;;;;;;6234762;22;20008;-62
2021/11/23 11:15:43;;;;;;;2.00;0.20;;;10.90;99.90;;;;;;6235783;22;20008;-61
2021/11/23 11:18:12;;;;;;;1.15;0.30;;;10.90;99.90;;;;;;6235140;22;20062;-62
2021/11/23 11:20:46;;;;;;;4.47;0.55;;;10.90;99.90;;;;;;6234983;22;20083;-62
2021/11/23 11:23:31;;;;;;;1.70;0.20;;;11.00;99.90;;;;;;6234748;22;20342;-62
2021/11/23 11:28:43;;;;;;;2.60;0.20;;;11.00;99.90;;;;;;6233574;22;20086;-62
2021/11/23 11:31:26;;;;;;;2.00;0.20;;;11.00;99.90;;;;;;6235106;22;20016;-62
2021/11/23 11:34:14;;;;;;;4.22;0.30;;;10.90;99.90;;;;;;6234206;23;20443;-62
2021/11/23 11:36:41;;;;;;;2.92;0.43;;;10.90;99.90;;;;;;6235206;22;20004;-62
2021/11/23 11:39:07;;;;;;;3.28;0.43;;;10.80;99.90;;;;;;6236180;22;20015;-62
2021/11/23 11:41:41;;;;;;;1.92;0.40;;;10.70;99.90;;;;;;6235373;22;20011;-62
2021/11/23 11:44:20;;;;;;;1.95;0.30;;;10.70;99.90;;;;;;6236486;22;20012;-63
2021/11/23 11:47:01;;;;;;;2.72;0.55;;;10.60;99.90;;;;;;6235914;22;20008;-62
2021/11/23 11:49:49;;;;;;;4.13;0.45;;;10.70;99.90;;;;;;6236151;22;20027;-62
2021/11/23 11:52:19;;;;;;;5.95;0.47;;;10.80;99.90;;;;;;6234997;22;20008;-61
2021/11/23 11:55:04;;;;;;;3.13;0.30;;;10.90;99.90;;;;;;6234932;22;20004;-63
2021/11/23 11:57:30;;;;;;;3.92;0.47;;;11.10;99.90;;;;;;6235242;22;20012;-63
2021/11/23 12:03:00;;;;;;;2.25;0.20;;;11.20;99.90;;;;;;6230232;22;20015;-62
2021/11/23 12:05:25;;;;;;;3.05;0.30;;;11.20;99.90;;;;;;6235235;22;20036;-62
2021/11/23 12:07:52;;;;;;;2.92;0.20;;;11.20;99.90;;;;;;6237932;22;20024;-62
2021/11/23 12:10:24;;;;;;;3.80;0.32;;;11.20;99.90;;;;;;6236116;22;20012;-61
2021/11/23 12:12:56;;;;;;;2.63;0.25;;;11.20;99.90;;;;;;6237898;22;20016;-62
2021/11/23 12:15:30;;;;;;;2.30;0.50;;;11.20;99.90;;;;;;6237097;22;20012;-62
2021/11/23 12:18:20;;;;;;;1.38;0.50;;;11.20;99.90;;;;;;6236418;22;20023;-62
2021/11/23 12:21:09;;;;;;;4.10;0.30;;;11.20;99.90;;;;;;6237186;22;20479;-62
2021/11/23 12:23:49;;;;;;;5.20;0.55;;;11.10;99.90;;;;;;6236588;22;20008;-62
2021/11/23 12:26:18;;;;;;;2.40;0.43;;;11.20;99.90;;;;;;6237205;22;20024;-62
2021/11/23 12:28:52;;;;;;;3.55;0.40;;;11.30;99.90;;;;;;6236396;22;20051;-62
2021/11/23 12:31:20;;;;;;;1.38;0.40;;;11.30;99.90;;;;;;6236110;22;20627;-63
2021/11/23 12:33:58;;;;;;;2.25;0.55;;;11.30;99.90;;;;;;6238076;22;20095;-61
2021/11/23 12:36:24;;;;;;;2.40;0.28;;;11.30;99.90;;;;;;6235909;22;20070;-62
2021/11/23 12:38:52;;;;;;;2.03;0.60;;;11.30;99.90;;;;;;6237711;22;20517;-62
2021/11/23 12:41:25;;;;;;;2.25;0.77;;;11.40;99.90;;;;;;6236233;22;20454;-62
2021/11/23 12:43:53;;;;;;;0.90;0.13;;;11.40;99.90;;;;;;6237828;22;20012;-62
2021/11/23 12:46:25;;;;;;;4.05;0.45;;;11.40;99.90;;;;;;6236274;22;20005;-62
2021/11/23 12:48:53;;;;;;;2.22;0.20;;;11.40;99.90;;;;;;6237581;22;20055;-62
2021/11/23 12:51:25;;;;;;;2.97;0.50;;;11.30;99.90;;;;;;6236792;22;20012;-62
2021/11/23 12:53:57;;;;;;;4.45;0.63;;;11.20;99.90;;;;;;6237757;22;20388;-62
2021/11/23 12:56:48;;;;;;;3.67;0.20;;;11.10;99.90;;;;;;6236620;22;20012;-62
2021/11/23 12:59:47;;;;;;;;;;;11.00;99.90;;;;;;6237859;22;20027;-63
2021/11/23 13:02:31;;;;;;;5.53;0.30;;;10.80;99.90;;;;;;6185006;22;19998;-63